createdAt,value
2022-12-15T00:02:19.776Z,-8.40
2022-12-15T00:05:06.370Z,-8.50
2022-12-15T00:10:38.393Z,-8.40
2022-12-15T00:13:31.702Z,-8.40
2022-12-15T00:16:17.996Z,-8.60
2022-12-15T00:19:03.541Z,-8.50
2022-12-15T00:27:21.415Z,-8.40
2022-12-15T00:30:06.829Z,-8.50
2022-12-15T00:32:52.097Z,-8.80
2022-12-15T00:35:37.722Z,-8.50
2022-12-15T00:38:41.362Z,-8.50
2022-12-15T00:43:36.919Z,-8.50
2022-12-15T00:46:22.900Z,-8.40
2022-12-15T00:51:17.727Z,-8.80
2022-12-15T00:54:04.374Z,-8.60
2022-12-15T00:56:50.412Z,-8.50
2022-12-15T00:59:36.357Z,-8.60
2022-12-15T01:02:22.910Z,-8.70
2022-12-15T01:10:40.389Z,-8.50
2022-12-15T01:18:58.488Z,-8.60
2022-12-15T01:21:25.602Z,-8.70
2022-12-15T01:26:20.416Z,-8.60
2022-12-15T01:28:47.336Z,-8.80
2022-12-15T01:33:43.836Z,-8.60
2022-12-15T01:36:11.059Z,-8.70
2022-12-15T01:41:08.177Z,-8.60
2022-12-15T01:43:37.948Z,-8.60
2022-12-15T01:49:03.026Z,-9.20
2022-12-15T01:51:35.588Z,-8.80
2022-12-15T01:56:37.909Z,-8.70
2022-12-15T01:59:09.118Z,-8.70
2022-12-15T02:01:36.139Z,-8.80
2022-12-15T02:04:03.412Z,-8.60
2022-12-15T02:08:59.646Z,-8.80
2022-12-15T02:11:42.967Z,-8.80
2022-12-15T02:14:11.940Z,-9.70
2022-12-15T02:16:47.939Z,-8.70
2022-12-15T02:19:35.021Z,-8.70
2022-12-15T02:22:14.423Z,-8.90
2022-12-15T02:24:52.919Z,-8.80
2022-12-15T02:27:39.556Z,-8.80
2022-12-15T02:30:17.630Z,-8.70
2022-12-15T02:32:55.198Z,-8.80
2022-12-15T02:35:29.210Z,-9.00
2022-12-15T02:37:56.085Z,-9.00
2022-12-15T02:42:54.646Z,-8.90
2022-12-15T02:45:35.739Z,-8.80
2022-12-15T02:48:34.490Z,-8.60
2022-12-15T02:51:24.231Z,-8.90
2022-12-15T02:54:09.992Z,-8.80
2022-12-15T02:57:15.446Z,-8.80
2022-12-15T02:59:57.039Z,-8.70
2022-12-15T03:02:28.700Z,-8.90
2022-12-15T03:04:56.711Z,-9.20
2022-12-15T03:07:27.974Z,-9.00
2022-12-15T03:09:56.981Z,-9.00
2022-12-15T03:12:23.945Z,-9.10
2022-12-15T03:14:51.042Z,-9.20
2022-12-15T03:17:17.943Z,-8.90
2022-12-15T03:32:01.299Z,-9.30
2022-12-15T03:34:28.193Z,-9.40
2022-12-15T03:36:55.032Z,-9.10
2022-12-15T03:46:43.980Z,-9.00
2022-12-15T03:49:10.884Z,-9.50
2022-12-15T03:51:37.873Z,-9.40
2022-12-15T03:54:04.787Z,-9.30
2022-12-15T03:58:59.399Z,-9.30
2022-12-15T04:01:31.420Z,-9.30
2022-12-15T04:04:01.220Z,-9.10
2022-12-15T04:06:29.585Z,-8.80
2022-12-15T04:08:56.476Z,-9.50
2022-12-15T04:11:23.335Z,-9.50
2022-12-15T04:16:20.136Z,-9.80
2022-12-15T04:21:34.782Z,-9.60
2022-12-15T04:24:20.383Z,-9.70
2022-12-15T04:27:05.787Z,-9.80
2022-12-15T04:35:23.856Z,-9.90
2022-12-15T04:40:55.317Z,-10.00
2022-12-15T04:43:40.956Z,-10.00
2022-12-15T04:49:12.858Z,-10.00
2022-12-15T05:03:01.730Z,-10.20
2022-12-15T05:05:47.246Z,-10.30
2022-12-15T05:11:19.323Z,-10.40
2022-12-15T05:14:05.047Z,-10.10
2022-12-15T05:16:50.477Z,-10.00
2022-12-15T05:22:21.865Z,-10.40
2022-12-15T05:25:07.465Z,-10.30
2022-12-15T05:27:52.933Z,-10.30
2022-12-15T05:33:06.065Z,-10.80
2022-12-15T05:40:27.593Z,-10.10
2022-12-15T05:42:59.229Z,-10.20
2022-12-15T05:45:26.940Z,-10.00
2022-12-15T05:47:54.676Z,-10.10
2022-12-15T05:50:22.634Z,-9.80
2022-12-15T05:52:52.516Z,-10.20
2022-12-15T05:55:19.905Z,-10.20
2022-12-15T05:57:55.930Z,-10.60
2022-12-15T06:00:23.169Z,-10.40
2022-12-15T06:02:50.271Z,-10.20
2022-12-15T06:07:44.913Z,-10.10
2022-12-15T06:12:39.286Z,-10.30
2022-12-15T06:15:06.564Z,-10.30
2022-12-15T06:17:33.541Z,-10.50
2022-12-15T06:20:00.503Z,-10.60
2022-12-15T06:22:29.167Z,-10.30
2022-12-15T06:24:56.056Z,-10.30
2022-12-15T06:27:22.941Z,-10.40
2022-12-15T06:32:17.142Z,-10.30
2022-12-15T06:34:44.145Z,-10.30
2022-12-15T06:37:11.159Z,-10.10
2022-12-15T06:44:32.670Z,-10.30
2022-12-15T06:49:27.005Z,-10.40
2022-12-15T06:51:53.956Z,-10.40
2022-12-15T06:54:20.905Z,-10.50
2022-12-15T07:04:12.253Z,-10.50
2022-12-15T07:06:39.994Z,-10.40
2022-12-15T07:09:11.069Z,-10.40
2022-12-15T07:11:37.973Z,-10.70
2022-12-15T07:14:05.126Z,-10.50
2022-12-15T07:21:27.256Z,-10.50
2022-12-15T07:23:56.283Z,-10.50
2022-12-15T07:26:24.613Z,-10.30
2022-12-15T07:31:19.890Z,-10.40
2022-12-15T07:33:48.740Z,-10.30
2022-12-15T07:38:49.987Z,-10.30
2022-12-15T07:41:18.565Z,-10.40
2022-12-15T07:46:14.467Z,-10.20
2022-12-15T07:51:17.082Z,-10.40
2022-12-15T07:53:46.969Z,-10.20
2022-12-15T07:56:14.142Z,-10.20
2022-12-15T08:01:12.488Z,-10.20
2022-12-15T08:03:40.605Z,-10.30
2022-12-15T08:06:10.267Z,-10.20
2022-12-15T08:08:37.449Z,-10.10
2022-12-15T08:11:12.684Z,-9.90
2022-12-15T08:16:29.241Z,-9.90
2022-12-15T08:18:58.841Z,-9.90
2022-12-15T08:21:25.936Z,-9.90
2022-12-15T08:23:52.904Z,-9.90
2022-12-15T08:26:25.230Z,-9.70
2022-12-15T08:34:12.173Z,-9.70
2022-12-15T08:36:39.144Z,-9.50
2022-12-15T08:41:35.388Z,-9.50
2022-12-15T08:44:04.167Z,-9.20
2022-12-15T08:46:34.308Z,-9.10
2022-12-15T08:49:03.131Z,-9.60
2022-12-15T08:51:31.798Z,-9.30
2022-12-15T08:54:00.294Z,-9.20
2022-12-15T08:56:27.906Z,-9.30
2022-12-15T08:58:57.746Z,-9.20
2022-12-15T09:01:26.604Z,-8.90
2022-12-15T09:03:55.505Z,-8.80
2022-12-15T09:06:30.719Z,-8.90
2022-12-15T09:08:59.582Z,-8.90
2022-12-15T09:11:27.977Z,-9.00
2022-12-15T09:13:55.483Z,-8.90
2022-12-15T09:16:22.979Z,-8.90
2022-12-15T09:18:54.086Z,-8.80
2022-12-15T09:21:23.345Z,-8.80
2022-12-15T09:23:52.166Z,-8.50
2022-12-15T09:26:20.752Z,-8.70
2022-12-15T09:28:50.757Z,-8.40
2022-12-15T09:31:23.527Z,-8.70
2022-12-15T09:33:52.731Z,-8.70
2022-12-15T09:36:20.199Z,-8.60
2022-12-15T09:38:47.283Z,-8.50
2022-12-15T09:41:14.905Z,-8.60
2022-12-15T09:43:47.400Z,-8.30
2022-12-15T09:46:24.193Z,-8.50
2022-12-15T09:48:53.756Z,-8.30
2022-12-15T09:51:25.350Z,-8.30
2022-12-15T09:53:55.223Z,-8.20
2022-12-15T09:56:32.834Z,-8.30
2022-12-15T09:59:22.643Z,-8.30
2022-12-15T10:02:00.399Z,-8.30
2022-12-15T10:05:12.311Z,-8.30
2022-12-15T10:07:46.421Z,-8.40
2022-12-15T10:10:38.932Z,-8.30
2022-12-15T10:13:17.899Z,-8.30
